Time;durP1;ratioP1;P1;durP2;ratioP2;P2;SDS_P1;SDS_P2;PMS_P1;PMS_P2;Temp;Humidity;BMP_temperature;BMP_pressure;BME280_temperature;BME280_humidity;BME280_pressure;Samples;Min_cycle;Max_cycle;Signal;HPM_P1;HPM_P2
2023/05/07 00:02:21;;;;;;;6.30;4.30;;;;;;;7.46;77.88;100699.73;131226;1263;106263;-75
2023/05/07 00:05:26;;;;;;;5.40;4.20;;;;;;;7.45;78.14;100697.86;131357;1247;107293;-75
2023/05/07 00:08:32;;;;;;;5.50;4.10;;;;;;;7.44;78.08;100699.06;131422;1251;107531;-74
2023/05/07 00:11:37;;;;;;;5.40;3.40;;;;;;;7.40;77.97;100701.08;131429;1253;107448;-75
2023/05/07 00:14:43;;;;;;;5.00;3.20;;;;;;;7.38;78.39;100703.96;131236;1260;107498;-76
2023/05/07 00:17:48;;;;;;;5.70;3.90;;;;;;;7.35;78.08;100703.08;131222;1253;106519;-77
2023/05/07 00:20:54;;;;;;;5.10;3.70;;;;;;;7.38;78.25;100705.67;131353;1253;107419;-74
2023/05/07 00:23:59;;;;;;;7.10;3.90;;;;;;;7.41;77.87;100707.38;131243;1251;107528;-75
2023/05/07 00:27:05;;;;;;;5.70;3.90;;;;;;;7.41;78.11;100712.36;131410;1253;106678;-75
2023/05/07 00:30:12;;;;;;;7.10;3.90;;;;;;;7.40;78.11;100713.85;131376;1254;107510;-75
2023/05/07 00:33:18;;;;;;;7.00;4.10;;;;;;;7.40;78.28;100717.71;131304;1258;107240;-75
2023/05/07 00:36:23;;;;;;;6.20;3.80;;;;;;;7.37;78.02;100719.05;131366;1247;107626;-76
2023/05/07 00:39:29;;;;;;;4.20;3.10;;;;;;;7.32;78.17;100720.70;131185;1248;106450;-76
2023/05/07 00:42:34;;;;;;;4.80;3.00;;;;;;;7.29;78.11;100723.20;131195;1254;106517;-76
2023/05/07 00:45:40;;;;;;;5.10;3.70;;;;;;;7.29;77.86;100727.27;131058;1253;107402;-76
2023/05/07 00:48:47;;;;;;;5.50;3.40;;;;;;;7.30;78.15;100725.66;131291;1253;107509;-76
2023/05/07 00:51:53;;;;;;;6.20;3.60;;;;;;;7.32;78.23;100728.50;131425;1252;108076;-76
2023/05/07 00:55:01;;;;;;;4.90;3.40;;;;;;;7.31;77.90;100727.83;131337;1253;107499;-76
2023/05/07 00:58:06;;;;;;;4.10;3.30;;;;;;;7.31;77.88;100732.85;131326;1253;107589;-76
2023/05/07 01:01:12;;;;;;;6.20;3.90;;;;;;;7.29;78.26;100735.60;131344;1253;107145;-76
2023/05/07 01:04:17;;;;;;;4.70;3.30;;;;;;;7.27;78.04;100742.63;131402;1252;107531;-76
2023/05/07 01:07:24;;;;;;;4.40;3.10;;;;;;;7.25;78.26;100742.66;131429;1261;107421;-76
2023/05/07 01:10:31;;;;;;;6.70;3.50;;;;;;;7.22;78.44;100739.34;131417;1253;107426;-76
2023/05/07 01:13:38;;;;;;;4.20;3.50;;;;;;;7.23;78.39;100738.23;131255;1248;107400;-76
2023/05/07 01:16:44;;;;;;;6.30;3.50;;;;;;;7.24;78.36;100738.33;131331;1247;107379;-76
2023/05/07 01:19:50;;;;;;;5.40;3.80;;;;;;;7.23;78.47;100735.70;131352;1247;107713;-76
2023/05/07 01:22:58;;;;;;;5.40;3.70;;;;;;;7.22;78.11;100734.40;131259;1251;107379;-75
2023/05/07 01:26:04;;;;;;;5.70;4.30;;;;;;;7.22;78.30;100735.95;131420;1253;107322;-76
2023/05/07 01:29:11;;;;;;;5.40;3.50;;;;;;;7.19;78.60;100735.83;131386;1262;107380;-76
2023/05/07 01:32:20;;;;;;;5.90;3.10;;;;;;;7.14;78.42;100739.77;131292;1252;107192;-75
2023/05/07 01:35:30;;;;;;;5.00;3.70;;;;;;;7.14;78.60;100736.10;131251;1254;107512;-75
2023/05/07 01:38:36;;;;;;;5.00;3.90;;;;;;;7.17;79.04;100737.95;131286;1253;107508;-76
2023/05/07 01:41:41;;;;;;;5.50;3.90;;;;;;;7.17;78.40;100742.00;131229;1247;107245;-76
2023/05/07 01:44:47;;;;;;;6.20;4.40;;;;;;;7.16;78.73;100743.52;131212;1247;107271;-76
2023/05/07 01:47:54;;;;;;;5.70;4.10;;;;;;;7.16;78.65;100744.23;131392;1248;107365;-75
2023/05/07 01:51:00;;;;;;;6.40;4.10;;;;;;;7.12;78.99;100748.09;131300;1253;106504;-77
2023/05/07 01:54:06;;;;;;;5.80;3.40;;;;;;;7.03;79.77;100747.17;131368;1254;107265;-76
2023/05/07 01:57:12;;;;;;;5.40;3.20;;;;;;;6.95;79.08;100746.77;131289;1254;107427;-75
2023/05/07 02:00:20;;;;;;;5.10;3.80;;;;;;;6.95;79.19;100749.00;131299;1247;107297;-76
2023/05/07 02:03:25;;;;;;;5.30;3.80;;;;;;;6.99;79.32;100748.58;131039;1253;107576;-75
2023/05/07 02:06:36;;;;;;;6.10;3.60;;;;;;;7.02;79.26;100751.60;131244;1248;107422;-76
2023/05/07 02:09:44;;;;;;;5.40;4.10;;;;;;;7.06;79.01;100753.33;131436;1248;107367;-76
2023/05/07 02:12:50;;;;;;;5.90;3.80;;;;;;;7.06;79.13;100754.88;131421;1253;107539;-75
2023/05/07 02:15:55;;;;;;;6.00;3.50;;;;;;;7.05;78.97;100759.88;131207;1253;107533;-75
2023/05/07 02:19:03;;;;;;;10.50;3.90;;;;;;;7.02;79.07;100762.12;131213;1253;107672;-74
2023/05/07 02:22:08;;;;;;;3.90;2.60;;;;;;;6.97;79.02;100760.93;131414;1248;106297;-74
2023/05/07 02:25:14;;;;;;;6.70;3.70;;;;;;;6.95;78.94;100768.67;131223;1248;107252;-75
2023/05/07 02:28:19;;;;;;;4.10;3.30;;;;;;;7.00;79.16;100770.91;131333;1253;108072;-74
2023/05/07 02:31:36;;;;;;;4.10;3.00;;;;;;;7.05;78.68;100772.85;131240;1251;107410;-76
2023/05/07 02:34:41;;;;;;;6.80;3.40;;;;;;;7.06;78.76;100774.71;131281;1248;107328;-76
2023/05/07 02:37:47;;;;;;;5.80;3.80;;;;;;;7.03;78.82;100775.48;131083;1248;107532;-75
2023/05/07 02:40:53;;;;;;;4.40;3.30;;;;;;;6.99;79.07;100778.79;131234;1248;107229;-76
2023/05/07 02:43:58;;;;;;;3.30;2.50;;;;;;;6.92;79.10;100784.10;131203;1254;107220;-76
2023/05/07 02:47:08;;;;;;;4.80;2.80;;;;;;;6.86;78.93;100780.80;131256;1253;107380;-76
2023/05/07 02:50:14;;;;;;;4.60;3.00;;;;;;;6.84;79.00;100776.16;131238;1247;107362;-75
2023/05/07 02:53:20;;;;;;;3.80;2.90;;;;;;;6.86;79.08;100778.35;131263;1253;107530;-76
2023/05/07 02:56:28;;;;;;;4.70;3.00;;;;;;;6.90;79.31;100782.84;131300;1247;107360;-76
2023/05/07 02:59:33;;;;;;;4.50;3.60;;;;;;;6.89;79.28;100785.77;131365;1254;107526;-75
2023/05/07 03:02:39;;;;;;;3.90;3.00;;;;;;;6.85;79.08;100785.46;131422;1247;107413;-76
2023/05/07 03:05:45;;;;;;;4.50;3.40;;;;;;;6.85;79.10;100783.86;131421;1248;107219;-75
2023/05/07 03:08:50;;;;;;;4.30;2.80;;;;;;;6.84;78.78;100781.69;131130;1253;107461;-75
2023/05/07 03:11:57;;;;;;;3.80;2.90;;;;;;;6.83;79.02;100784.39;131091;1253;107539;-75
2023/05/07 03:15:02;;;;;;;4.90;3.10;;;;;;;6.85;79.45;100783.55;131424;1253;107483;-75
2023/05/07 03:18:08;;;;;;;4.00;3.20;;;;;;;6.84;79.05;100788.56;131411;1253;107352;-74
2023/05/07 03:21:13;;;;;;;4.20;2.70;;;;;;;6.84;79.44;100792.64;131201;1253;107922;-76
2023/05/07 03:24:19;;;;;;;4.30;3.20;;;;;;;6.82;79.14;100795.45;131282;1253;107508;-76
2023/05/07 03:27:24;;;;;;;3.90;3.10;;;;;;;6.84;79.42;100799.39;131275;1247;107607;-76
2023/05/07 03:30:31;;;;;;;4.30;3.60;;;;;;;6.84;79.32;100804.16;131250;1248;107411;-76
2023/05/07 03:33:40;;;;;;;4.50;3.10;;;;;;;6.82;79.59;100800.98;131118;1247;108159;-76
2023/05/07 03:36:45;;;;;;;4.70;2.80;;;;;;;6.81;79.60;100806.88;131268;1248;107549;-76
2023/05/07 03:39:51;;;;;;;3.80;3.10;;;;;;;6.81;79.45;100807.35;131190;1253;107533;-76
2023/05/07 03:42:58;;;;;;;4.10;3.10;;;;;;;6.84;79.37;100811.77;131200;1248;107226;-76
2023/05/07 03:46:05;;;;;;;4.20;2.80;;;;;;;6.89;79.41;100813.99;131199;1253;107462;-76
2023/05/07 03:49:10;;;;;;;4.20;3.10;;;;;;;6.90;79.55;100815.93;131236;1247;107517;-76
2023/05/07 03:52:16;;;;;;;4.30;2.90;;;;;;;6.87;79.29;100815.90;131236;1254;107482;-76
2023/05/07 03:55:22;;;;;;;3.40;2.80;;;;;;;6.88;79.24;100825.42;131230;1260;107212;-76
2023/05/07 03:58:31;;;;;;;4.90;2.50;;;;;;;6.88;79.31;100826.52;131248;1251;107548;-76
2023/05/07 04:01:38;;;;;;;4.40;2.60;;;;;;;6.85;79.29;100825.83;131616;1245;107254;-75
2023/05/07 04:04:44;;;;;;;4.20;3.10;;;;;;;6.87;79.53;100829.52;131743;1250;107379;-75
2023/05/07 04:07:50;;;;;;;4.10;3.10;;;;;;;6.93;79.49;100831.23;131598;1250;107363;-76
2023/05/07 04:10:59;;;;;;;4.80;2.90;;;;;;;6.97;79.37;100832.02;131675;1250;107362;-76
2023/05/07 04:14:07;;;;;;;4.00;3.30;;;;;;;6.97;79.37;100831.45;131660;1247;107184;-75
2023/05/07 04:17:13;;;;;;;4.60;3.10;;;;;;;7.01;79.19;100837.50;131698;1250;107367;-75
2023/05/07 04:20:19;;;;;;;4.50;3.40;;;;;;;7.03;79.30;100842.67;131720;1250;107494;-76
2023/05/07 04:23:28;;;;;;;4.20;2.60;;;;;;;7.01;79.42;100847.08;131696;1250;107378;-76
2023/05/07 04:26:35;;;;;;;3.90;2.70;;;;;;;6.98;79.37;100850.81;131404;1253;107427;-76
2023/05/07 04:29:42;;;;;;;4.40;2.70;;;;;;;6.99;79.40;100852.91;131756;1248;107438;-75
2023/05/07 04:32:49;;;;;;;2.90;2.50;;;;;;;7.00;79.27;100859.54;131542;1253;108089;-76
2023/05/07 04:35:54;;;;;;;3.50;2.80;;;;;;;7.02;79.32;100861.14;131381;1248;107478;-75
2023/05/07 04:39:00;;;;;;;4.90;3.10;;;;;;;7.05;79.39;100868.02;131803;1248;107245;-75
2023/05/07 04:42:08;;;;;;;3.30;2.50;;;;;;;7.08;79.31;100865.47;131747;1250;107379;-76
2023/05/07 04:45:15;;;;;;;4.00;2.90;;;;;;;7.11;79.45;100872.06;131807;1248;107517;-75
2023/05/07 04:48:21;;;;;;;3.90;2.80;;;;;;;7.08;79.44;100875.56;131610;1250;107537;-75
2023/05/07 04:51:28;;;;;;;4.60;2.50;;;;;;;7.04;79.59;100871.82;131637;1250;106396;-75
2023/05/07 04:54:34;;;;;;;3.00;2.30;;;;;;;7.00;79.45;100877.39;131578;1250;107367;-76
2023/05/07 04:57:41;;;;;;;3.30;2.60;;;;;;;7.04;79.51;100886.45;131763;1246;107366;-76
2023/05/07 05:00:47;;;;;;;5.30;2.80;;;;;;;7.11;79.55;100885.80;131593;1250;107357;-76
2023/05/07 05:03:52;;;;;;;4.50;2.70;;;;;;;7.17;79.44;100886.95;131539;1250;107533;-76
2023/05/07 05:06:59;;;;;;;3.70;2.40;;;;;;;7.20;79.25;100887.24;131531;1250;107421;-74
2023/05/07 05:10:06;;;;;;;3.20;2.70;;;;;;;7.20;79.18;100888.28;131470;1250;107418;-76
2023/05/07 05:13:13;;;;;;;3.40;2.80;;;;;;;7.21;79.29;100891.98;131517;1248;107357;-76
2023/05/07 05:16:19;;;;;;;3.60;2.70;;;;;;;7.21;79.17;100897.45;131529;1248;107249;-76
2023/05/07 05:19:25;;;;;;;3.40;2.40;;;;;;;7.20;79.44;100901.09;131577;1250;107355;-76
2023/05/07 05:22:31;;;;;;;3.20;2.30;;;;;;;7.19;79.30;100911.01;131510;1250;107568;-76
2023/05/07 05:25:39;;;;;;;3.60;2.80;;;;;;;7.21;79.24;100912.83;131418;1251;107498;-76
2023/05/07 05:28:44;;;;;;;2.70;2.00;;;;;;;7.24;79.24;100918.60;131564;1248;107355;-76
2023/05/07 05:31:51;;;;;;;3.10;2.40;;;;;;;7.27;79.22;100912.73;131420;1251;107464;-76
2023/05/07 05:34:57;;;;;;;4.70;3.00;;;;;;;7.31;78.92;100917.36;131231;1253;107464;-74
2023/05/07 05:38:04;;;;;;;3.00;2.50;;;;;;;7.34;79.09;100921.39;131498;1248;107849;-76
2023/05/07 05:41:10;;;;;;;3.10;2.10;;;;;;;7.35;78.84;100924.89;131542;1250;107419;-75
2023/05/07 05:44:16;;;;;;;3.50;2.70;;;;;;;7.35;79.00;100918.64;131507;1250;107462;-76
2023/05/07 05:47:22;;;;;;;2.90;2.30;;;;;;;7.39;79.01;100923.16;131431;1250;107408;-76
2023/05/07 05:50:27;;;;;;;3.20;2.30;;;;;;;7.42;78.94;100925.38;131500;1250;107438;-76
2023/05/07 05:53:34;;;;;;;4.30;3.40;;;;;;;7.50;79.01;100923.00;131687;1248;107346;-76
2023/05/07 05:56:40;;;;;;;4.50;3.30;;;;;;;7.59;78.76;100920.75;131432;1264;107580;-76
2023/05/07 05:59:47;;;;;;;4.50;2.90;;;;;;;7.64;78.75;100925.15;131434;1247;107470;-76
2023/05/07 06:02:53;;;;;;;3.20;2.70;;;;;;;7.67;78.58;100928.84;131630;1248;107218;-76
2023/05/07 06:06:00;;;;;;;2.80;2.30;;;;;;;7.69;78.40;100927.06;131451;1247;107352;-76
2023/05/07 06:09:06;;;;;;;3.30;2.20;;;;;;;7.75;78.24;100928.39;131415;1263;107199;-76
2023/05/07 06:12:17;;;;;;;;;;;;;;;7.85;78.34;100929.40;131222;1253;107385;-76
2023/05/07 06:15:23;;;;;;;4.40;2.60;;;;;;;7.95;78.38;100932.66;131237;1248;107324;-76
2023/05/07 06:18:29;;;;;;;3.20;2.20;;;;;;;8.08;78.17;100933.30;131428;1250;107362;-76
2023/05/07 06:21:35;;;;;;;3.40;2.20;;;;;;;8.16;78.01;100938.50;131521;1250;107345;-76
2023/05/07 06:24:41;;;;;;;3.30;2.00;;;;;;;8.18;78.06;100947.00;131508;1250;107432;-74
2023/05/07 06:27:47;;;;;;;4.20;2.30;;;;;;;8.18;77.82;100951.77;131498;1250;107424;-76
2023/05/07 06:30:53;;;;;;;2.80;2.40;;;;;;;8.22;77.97;100956.77;131465;1250;107391;-76
2023/05/07 06:33:58;;;;;;;4.60;2.30;;;;;;;8.28;77.89;100959.02;131540;1250;107500;-76
2023/05/07 06:37:09;;;;;;;3.30;2.30;;;;;;;8.25;77.58;100963.46;131498;1251;107420;-76
2023/05/07 06:40:29;;;;;;;4.20;2.60;;;;;;;8.22;77.74;100961.95;131516;1248;107365;-76
2023/05/07 06:43:38;;;;;;;3.00;2.40;;;;;;;8.20;77.62;100966.35;131520;1248;107340;-74
2023/05/07 06:47:10;;;;;;;8.60;6.70;;;;;;;8.16;77.29;100967.38;131472;1248;107532;-74
2023/05/07 06:50:17;;;;;;;10.10;7.10;;;;;;;8.04;77.13;100971.63;131598;1248;107414;-75
2023/05/07 06:53:24;;;;;;;5.80;3.40;;;;;;;7.98;77.47;100973.71;131533;1262;107467;-75
2023/05/07 06:56:31;;;;;;;5.10;2.80;;;;;;;7.93;77.31;100978.36;131594;1251;107334;-77
2023/05/07 06:59:37;;;;;;;6.70;4.10;;;;;;;7.94;77.40;100981.16;131279;1250;107471;-76
2023/05/07 07:02:43;;;;;;;5.40;3.60;;;;;;;8.00;77.31;100981.16;131407;1251;107372;-75
2023/05/07 07:05:52;;;;;;;7.40;4.40;;;;;;;8.11;77.10;100981.41;131681;1250;107470;-74
2023/05/07 07:08:58;;;;;;;4.40;3.00;;;;;;;8.17;77.21;100978.09;131503;1250;107588;-76
2023/05/07 07:12:04;;;;;;;4.30;3.20;;;;;;;8.21;76.60;100973.37;131518;1255;107500;-76
2023/05/07 07:15:11;;;;;;;4.20;2.70;;;;;;;8.30;76.37;100970.94;131466;1250;107438;-76
2023/05/07 07:18:18;;;;;;;4.00;3.10;;;;;;;8.32;76.45;100972.02;131546;1251;107466;-76
2023/05/07 07:21:25;;;;;;;3.60;2.60;;;;;;;8.44;76.91;100971.95;131497;1250;107437;-76
2023/05/07 07:24:32;;;;;;;5.10;3.10;;;;;;;8.71;76.40;100970.14;131510;1250;107383;-76
2023/05/07 07:27:40;;;;;;;4.10;3.10;;;;;;;8.97;76.16;100974.42;131481;1250;107528;-76
2023/05/07 07:30:46;;;;;;;4.60;2.90;;;;;;;9.13;76.33;100976.72;131858;1250;107401;-75
2023/05/07 07:33:52;;;;;;;3.10;2.40;;;;;;;9.23;75.87;100979.04;131588;1251;107358;-75
2023/05/07 07:36:57;;;;;;;4.90;3.20;;;;;;;9.28;75.40;100983.61;131281;1253;107512;-76
2023/05/07 07:40:04;;;;;;;4.50;2.90;;;;;;;9.35;75.79;100983.95;131631;1248;107320;-76
2023/05/07 07:43:09;;;;;;;4.00;3.10;;;;;;;9.41;75.54;100993.02;131238;1248;107289;-76
2023/05/07 07:46:16;;;;;;;8.90;4.60;;;;;;;9.49;75.25;100995.94;131462;1251;107399;-74
2023/05/07 07:49:22;;;;;;;5.50;2.80;;;;;;;9.59;75.26;100998.96;131580;1250;107525;-75
2023/05/07 07:52:28;;;;;;;3.90;2.50;;;;;;;9.76;74.57;101003.96;131569;1248;108378;-75
2023/05/07 07:55:38;;;;;;;5.50;2.90;;;;;;;9.87;74.99;101004.09;131754;1250;107345;-74
2023/05/07 07:58:45;;;;;;;4.80;2.70;;;;;;;9.92;74.67;101004.24;131452;1253;107498;-76
2023/05/07 08:01:53;;;;;;;3.30;2.40;;;;;;;9.89;74.07;101003.42;131726;1250;107343;-75
2023/05/07 08:04:59;;;;;;;7.50;4.20;;;;;;;9.92;74.31;100994.11;131854;1248;107670;-74
2023/05/07 08:08:05;;;;;;;5.00;3.40;;;;;;;10.08;73.67;100995.52;131638;1250;107373;-75
2023/05/07 08:11:12;;;;;;;4.20;2.80;;;;;;;10.12;73.22;100996.45;131706;1247;107342;-76
2023/05/07 08:14:18;;;;;;;4.40;2.70;;;;;;;10.15;73.79;100998.12;131475;1253;107973;-75
2023/05/07 08:17:25;;;;;;;4.00;2.70;;;;;;;10.21;73.54;101000.30;131363;1248;107542;-76
2023/05/07 08:20:32;;;;;;;3.90;2.30;;;;;;;10.24;72.84;101001.98;131527;1250;107541;-74
2023/05/07 08:23:37;;;;;;;4.20;2.40;;;;;;;10.24;72.98;101009.64;131549;1260;107239;-74
2023/05/07 08:26:44;;;;;;;4.30;3.30;;;;;;;10.19;72.12;101018.23;131510;1250;107345;-75
2023/05/07 08:29:51;;;;;;;5.00;3.50;;;;;;;10.14;72.90;101023.13;131538;1250;107413;-74
2023/05/07 08:32:57;;;;;;;5.40;3.80;;;;;;;10.22;73.04;101025.66;131514;1250;107436;-75
2023/05/07 08:36:02;;;;;;;4.40;3.50;;;;;;;10.25;72.29;101031.99;131307;1247;107503;-75
2023/05/07 08:39:08;;;;;;;8.20;5.00;;;;;;;10.21;71.78;101031.58;131511;1248;107437;-75
2023/05/07 08:42:17;;;;;;;11.40;5.90;;;;;;;10.28;72.09;101028.77;131591;1251;107363;-75
2023/05/07 08:45:23;;;;;;;7.30;4.60;;;;;;;10.17;71.66;101030.86;131563;1250;107367;-75
2023/05/07 08:48:33;;;;;;;7.50;4.70;;;;;;;10.02;71.71;101034.64;131506;1248;107399;-75
2023/05/07 08:51:49;;;;;;;10.30;6.30;;;;;;;9.93;72.36;101038.65;131159;1253;107521;-75
2023/05/07 08:54:55;;;;;;;5.80;3.90;;;;;;;9.89;72.30;101048.54;131516;1250;107455;-76
2023/05/07 08:58:01;;;;;;;10.30;6.10;;;;;;;9.95;72.54;101050.87;131560;1251;107405;-75
2023/05/07 09:01:10;;;;;;;4.90;3.50;;;;;;;10.12;72.09;101053.90;131546;1260;107499;-76
2023/05/07 09:04:16;;;;;;;4.80;3.40;;;;;;;10.35;71.31;101055.02;131443;1248;107304;-73
2023/05/07 09:07:24;;;;;;;7.10;4.40;;;;;;;10.43;70.58;101057.67;131488;1250;107417;-73
2023/05/07 09:10:33;;;;;;;30.70;14.60;;;;;;;10.49;71.32;101059.96;131256;1248;107392;-73
2023/05/07 09:13:40;;;;;;;6.50;3.70;;;;;;;10.60;70.76;101060.98;131543;1248;107424;-73
2023/05/07 09:16:47;;;;;;;7.30;4.90;;;;;;;10.62;70.28;101062.95;131574;1248;107327;-73
2023/05/07 09:19:53;;;;;;;9.70;6.40;;;;;;;10.60;70.83;101066.29;131549;1250;107506;-74
2023/05/07 09:22:59;;;;;;;10.30;6.00;;;;;;;10.56;70.46;101069.55;131593;1251;107340;-73
2023/05/07 09:26:11;;;;;;;11.80;7.10;;;;;;;10.47;70.46;101070.11;131503;1250;107492;-73
2023/05/07 09:29:19;;;;;;;9.90;6.20;;;;;;;10.43;70.48;101076.36;131488;1251;107444;-73
2023/05/07 09:32:25;;;;;;;6.00;4.10;;;;;;;10.43;70.15;101079.91;131783;1254;106236;-76
2023/05/07 09:35:32;;;;;;;9.50;5.00;;;;;;;10.59;69.66;101081.91;131297;1254;107385;-75
2023/05/07 09:38:42;;;;;;;3.90;2.90;;;;;;;10.71;69.87;101080.54;131434;1253;108594;-75
2023/05/07 09:41:51;;;;;;;3.50;2.50;;;;;;;10.72;69.26;101082.40;131475;1248;107498;-75
2023/05/07 09:45:06;;;;;;;7.80;4.90;;;;;;;10.62;69.74;101088.20;131395;1248;107374;-75
2023/05/07 09:48:17;;;;;;;5.10;3.40;;;;;;;10.76;69.64;101088.63;131425;1253;107366;-75
2023/05/07 09:51:30;;;;;;;5.40;3.50;;;;;;;10.88;69.47;101091.98;131332;1248;107352;-75
2023/05/07 09:54:38;;;;;;;4.50;3.00;;;;;;;11.03;69.36;101086.96;131241;1248;107265;-75
2023/05/07 09:57:46;;;;;;;3.60;3.00;;;;;;;11.15;68.92;101090.35;131334;1257;107458;-75
2023/05/07 10:00:53;;;;;;;6.00;4.00;;;;;;;11.14;68.56;101096.18;131554;1251;107422;-75
2023/05/07 10:04:00;;;;;;;4.60;3.60;;;;;;;11.00;68.99;101100.63;131473;1247;107407;-75
2023/05/07 10:07:06;;;;;;;14.60;7.30;;;;;;;10.94;69.03;101104.48;131262;1254;107500;-75
2023/05/07 10:10:13;;;;;;;7.80;4.50;;;;;;;10.89;69.00;101104.90;131412;1253;107347;-75
2023/05/07 10:13:21;;;;;;;10.90;5.30;;;;;;;10.85;68.70;101106.91;131378;1253;107413;-75
2023/05/07 10:16:31;;;;;;;17.90;9.10;;;;;;;10.84;68.59;101111.09;131438;1248;107352;-75
2023/05/07 10:19:38;;;;;;;14.00;7.00;;;;;;;10.90;68.59;101109.13;131472;1253;107414;-75
2023/05/07 10:22:48;;;;;;;9.80;5.60;;;;;;;10.87;67.91;101109.73;131242;1248;107513;-76
2023/05/07 10:25:56;;;;;;;7.00;4.10;;;;;;;10.81;68.82;101118.95;131275;1254;107377;-75
2023/05/07 10:29:08;;;;;;;5.30;3.80;;;;;;;10.78;68.40;101116.91;131429;1253;107370;-75
2023/05/07 10:32:37;;;;;;;9.90;6.40;;;;;;;10.84;69.03;101115.52;131209;1253;107387;-75
2023/05/07 10:35:47;;;;;;;6.70;3.80;;;;;;;11.13;68.44;101116.54;131232;1253;107346;-75
2023/05/07 10:38:53;;;;;;;4.40;3.00;;;;;;;11.32;68.24;101115.24;131109;1253;106397;-75
2023/05/07 10:42:10;;;;;;;4.20;3.10;;;;;;;11.48;67.87;101116.64;131238;1247;107443;-76
2023/05/07 10:45:17;;;;;;;3.30;2.60;;;;;;;11.58;67.28;101117.86;131141;1254;107484;-76
2023/05/07 10:48:24;;;;;;;4.20;2.80;;;;;;;11.69;67.33;101126.20;131256;1253;107472;-76
2023/05/07 10:51:34;;;;;;;3.80;3.40;;;;;;;11.84;67.12;101122.47;131456;1253;107423;-77
2023/05/07 10:54:47;;;;;;;3.30;2.70;;;;;;;12.04;66.89;101128.86;131576;1255;107371;-76
2023/05/07 10:57:53;;;;;;;6.00;2.80;;;;;;;12.20;66.31;101127.77;131524;1254;107301;-76
2023/05/07 11:01:06;;;;;;;4.30;2.80;;;;;;;12.20;64.33;101128.67;131507;1248;107382;-77
2023/05/07 11:04:17;;;;;;;6.80;3.10;;;;;;;12.08;64.91;101123.35;131541;1251;107492;-76
2023/05/07 11:07:33;;;;;;;3.90;3.20;;;;;;;12.18;65.47;101121.88;131527;1260;106960;-76
2023/05/07 11:10:58;;;;;;;7.40;4.60;;;;;;;12.45;65.72;101120.29;131536;1250;107366;-77
2023/05/07 11:14:46;;;;;;;5.00;3.60;;;;;;;12.69;64.24;101123.05;131368;1251;181227;-76
2023/05/07 11:18:13;;;;;;;6.80;3.10;;;;;;;12.57;64.35;101119.34;131576;1248;107641;-76
2023/05/07 11:21:34;;;;;;;4.40;2.70;;;;;;;12.55;64.03;101126.47;132875;1251;107522;-77
2023/05/07 11:25:02;;;;;;;4.70;2.60;;;;;;;12.53;63.42;101125.97;131455;1249;107370;-76
2023/05/07 11:28:11;;;;;;;10.60;7.00;;;;;;;12.48;62.88;101130.32;131350;1251;106839;-76
2023/05/07 11:31:24;;;;;;;3.40;3.00;;;;;;;12.34;62.77;101133.10;131519;1251;107444;-76
2023/05/07 11:34:30;;;;;;;6.20;3.90;;;;;;;12.13;63.30;101136.61;131606;1250;106377;-77
2023/05/07 11:37:38;;;;;;;8.20;4.20;;;;;;;12.06;63.93;101140.16;131711;1247;106346;-76
2023/05/07 11:40:52;;;;;;;4.20;3.10;;;;;;;12.13;63.42;101144.48;131673;1253;107342;-77
2023/05/07 11:44:00;;;;;;;6.80;4.10;;;;;;;12.21;63.36;101139.51;131715;1261;107491;-77
2023/05/07 11:47:06;;;;;;;7.40;4.20;;;;;;;12.26;63.40;101144.05;131448;1251;107415;-78
2023/05/07 11:50:12;;;;;;;7.20;4.50;;;;;;;12.21;63.50;101145.16;131640;1250;107635;-77
2023/05/07 11:53:17;;;;;;;5.30;3.40;;;;;;;12.09;63.30;101151.80;131608;1250;107495;-77
2023/05/07 11:56:23;;;;;;;5.10;2.90;;;;;;;11.96;63.08;101152.98;131644;1251;107496;-77
2023/05/07 11:59:28;;;;;;;7.50;3.50;;;;;;;11.81;63.04;101153.20;131682;1251;107402;-77
2023/05/07 12:02:34;;;;;;;4.40;3.30;;;;;;;11.70;62.85;101159.72;131745;1251;107464;-80
2023/05/07 12:05:41;;;;;;;6.30;4.60;;;;;;;11.62;63.01;101161.01;131906;1251;107462;-79
2023/05/07 12:08:48;;;;;;;5.20;4.10;;;;;;;11.67;63.18;101161.77;131283;1253;107514;-80
2023/05/07 12:11:55;;;;;;;5.60;3.60;;;;;;;11.75;62.46;101161.93;131208;1261;107439;-80
2023/05/07 12:15:01;;;;;;;18.40;4.30;;;;;;;11.81;62.88;101165.54;131250;1258;106408;-80
2023/05/07 12:18:07;;;;;;;4.50;3.40;;;;;;;11.82;63.03;101164.35;131246;1248;106513;-78
2023/05/07 12:21:14;;;;;;;4.20;3.00;;;;;;;11.85;63.02;101171.06;131228;1248;107217;-77
2023/05/07 12:24:20;;;;;;;4.00;2.50;;;;;;;11.87;62.36;101169.45;131338;1254;107249;-77
2023/05/07 12:27:26;;;;;;;5.00;3.00;;;;;;;11.88;62.61;101172.20;131434;1254;107357;-77
2023/05/07 12:30:32;;;;;;;7.30;5.20;;;;;;;12.05;62.81;101171.20;131217;1252;107481;-77
2023/05/07 12:33:38;;;;;;;9.00;4.90;;;;;;;12.28;62.52;101168.41;131226;1261;107590;-77
2023/05/07 12:36:43;;;;;;;5.50;3.70;;;;;;;12.47;62.00;101170.58;131314;1251;107245;-77
2023/05/07 12:40:06;;;;;;;6.50;3.70;;;;;;;12.61;62.18;101168.22;131307;1254;107527;-77
2023/05/07 12:43:18;;;;;;;10.20;5.80;;;;;;;12.73;61.69;101170.09;131381;1251;107300;-77
2023/05/07 12:46:23;;;;;;;5.40;3.50;;;;;;;12.89;61.82;101164.17;131423;1257;107378;-77
2023/05/07 12:49:29;;;;;;;4.30;3.30;;;;;;;13.04;61.67;101167.02;131364;1253;107515;-77
2023/05/07 12:52:35;;;;;;;6.70;4.20;;;;;;;13.19;61.73;101172.25;131311;1248;107505;-77
2023/05/07 12:55:45;;;;;;;5.80;3.30;;;;;;;13.35;61.30;101169.63;131304;1261;107508;-77
2023/05/07 12:58:51;;;;;;;4.90;3.40;;;;;;;13.39;60.65;101163.92;131268;1261;107494;-76
2023/05/07 13:01:57;;;;;;;4.40;2.90;;;;;;;13.37;60.22;101166.05;131160;1253;107545;-76
2023/05/07 13:05:02;;;;;;;3.10;2.80;;;;;;;13.30;59.61;101171.33;131212;1257;107264;-76
2023/05/07 13:08:09;;;;;;;5.10;3.70;;;;;;;13.26;59.90;101173.48;131349;1253;107586;-76
2023/05/07 13:11:15;;;;;;;4.50;3.00;;;;;;;13.30;59.89;101175.91;131275;1254;107316;-76
2023/05/07 13:14:21;;;;;;;3.40;2.60;;;;;;;13.35;59.45;101176.79;131694;1253;107513;-77
2023/05/07 13:17:26;;;;;;;4.10;2.90;;;;;;;13.41;59.76;101174.58;131501;1250;106668;-76
2023/05/07 13:20:32;;;;;;;5.20;2.40;;;;;;;13.44;59.71;101177.29;131536;1250;105930;-76
2023/05/07 13:23:38;;;;;;;4.40;2.80;;;;;;;13.38;59.57;101177.58;131555;1260;107886;-77
2023/05/07 13:26:44;;;;;;;4.40;2.90;;;;;;;13.26;59.47;101181.86;131521;1251;107628;-76
2023/05/07 13:29:49;;;;;;;5.00;2.90;;;;;;;13.16;59.65;101178.05;131574;1250;107500;-77
2023/05/07 13:32:56;;;;;;;4.30;2.90;;;;;;;13.18;59.70;101183.89;131600;1260;107655;-77
2023/05/07 13:36:03;;;;;;;4.00;2.70;;;;;;;13.12;59.33;101184.45;131563;1260;107518;-76
2023/05/07 13:39:09;;;;;;;4.90;3.00;;;;;;;13.04;59.71;101182.96;131565;1257;107373;-76
2023/05/07 13:42:15;;;;;;;5.00;2.70;;;;;;;12.98;59.29;101177.40;131504;1251;107402;-76
2023/05/07 13:45:21;;;;;;;3.20;2.90;;;;;;;12.90;59.19;101185.80;131580;1254;107491;-78
2023/05/07 13:48:26;;;;;;;4.50;3.20;;;;;;;12.93;59.66;101180.71;131504;1251;107551;-78
2023/05/07 13:51:32;;;;;;;4.00;2.70;;;;;;;13.00;58.84;101181.14;131515;1251;107406;-78
2023/05/07 13:54:37;;;;;;;3.60;3.10;;;;;;;13.04;58.36;101183.50;131497;1248;107521;-78
2023/05/07 13:57:43;;;;;;;3.60;2.90;;;;;;;13.03;58.35;101183.55;131532;1250;107527;-78
2023/05/07 14:00:48;;;;;;;5.70;3.70;;;;;;;12.88;57.98;101183.89;131616;1257;107520;-78
2023/05/07 14:03:54;;;;;;;4.40;2.80;;;;;;;12.78;58.49;101181.80;131553;1250;107570;-78
2023/05/07 14:06:59;;;;;;;4.70;3.30;;;;;;;12.77;58.54;101184.03;131532;1248;107580;-78
2023/05/07 14:10:06;;;;;;;5.80;3.20;;;;;;;12.80;58.57;101185.40;131538;1260;106309;-77
2023/05/07 14:13:12;;;;;;;4.50;2.60;;;;;;;12.60;57.87;101184.06;131543;1250;107512;-78
2023/05/07 14:16:17;;;;;;;3.80;2.40;;;;;;;12.43;58.22;101182.61;131551;1250;107410;-77
2023/05/07 14:19:23;;;;;;;3.50;2.60;;;;;;;12.41;58.03;101182.22;131704;1253;107513;-78